createdAt,value
2022-11-26T00:00:22.780Z,10.82
2022-11-26T00:02:54.997Z,11.60
2022-11-26T00:05:26.524Z,12.30
2022-11-26T00:08:02.560Z,12.35
2022-11-26T00:10:54.785Z,11.40
2022-11-26T00:13:29.209Z,12.20
2022-11-26T00:16:00.308Z,11.77
2022-11-26T00:18:31.152Z,12.68
2022-11-26T00:21:03.436Z,14.32
2022-11-26T00:23:34.192Z,11.90
2022-11-26T00:26:06.951Z,13.45
2022-11-26T00:28:39.911Z,12.68
2022-11-26T00:31:16.903Z,11.55
2022-11-26T00:33:48.383Z,12.75
2022-11-26T00:36:31.263Z,13.68
2022-11-26T00:39:24.925Z,13.50
2022-11-26T00:41:55.777Z,14.68
2022-11-26T00:44:27.888Z,12.77
2022-11-26T00:46:58.849Z,12.18
2022-11-26T00:49:32.821Z,15.75
2022-11-26T00:52:04.062Z,15.35
2022-11-26T00:54:35.973Z,14.23
2022-11-26T00:57:27.872Z,16.05
2022-11-26T00:59:58.553Z,13.82
2022-11-26T01:02:29.568Z,14.20
2022-11-26T01:05:00.318Z,15.52
2022-11-26T01:07:31.181Z,15.50
2022-11-26T01:10:01.884Z,13.82
2022-11-26T01:12:32.582Z,14.68
2022-11-26T01:15:03.345Z,17.73
2022-11-26T01:17:34.307Z,14.10
2022-11-26T01:20:07.412Z,16.80
2022-11-26T01:22:38.452Z,17.80
2022-11-26T01:25:09.794Z,16.77
2022-11-26T01:27:43.375Z,16.40
2022-11-26T01:30:27.728Z,15.25
2022-11-26T01:32:59.171Z,18.85
2022-11-26T01:35:30.649Z,16.15
2022-11-26T01:38:01.256Z,16.55
2022-11-26T01:41:32.063Z,18.35
2022-11-26T01:44:05.911Z,16.27
2022-11-26T01:49:23.748Z,15.25
2022-11-26T01:52:36.070Z,17.08
2022-11-26T01:55:07.840Z,16.40
2022-11-26T01:57:40.227Z,18.75
2022-11-26T02:00:11.521Z,17.95
2022-11-26T02:02:43.467Z,15.75
2022-11-26T02:05:22.367Z,18.30
2022-11-26T02:07:54.733Z,18.98
2022-11-26T02:10:25.798Z,15.20
2022-11-26T02:12:57.301Z,18.15
2022-11-26T02:15:34.016Z,18.15
2022-11-26T02:18:12.572Z,17.15
2022-11-26T02:21:11.910Z,15.60
2022-11-26T02:23:45.125Z,17.10
2022-11-26T02:26:49.657Z,18.13
2022-11-26T02:29:33.699Z,17.83
2022-11-26T02:32:23.569Z,17.88
2022-11-26T02:35:07.420Z,16.73
2022-11-26T02:37:44.528Z,16.48
2022-11-26T02:40:15.781Z,16.35
2022-11-26T02:42:46.857Z,16.55
2022-11-26T02:45:28.326Z,17.50
2022-11-26T02:48:04.801Z,16.48
2022-11-26T02:50:39.965Z,18.65
2022-11-26T02:53:15.285Z,17.08
2022-11-26T02:55:55.667Z,15.68
2022-11-26T02:58:29.281Z,17.70
2022-11-26T03:01:02.408Z,16.23
2022-11-26T03:03:37.820Z,17.83
2022-11-26T03:06:13.553Z,18.65
2022-11-26T03:08:46.673Z,14.70
2022-11-26T03:11:40.953Z,18.33
2022-11-26T03:14:12.361Z,14.98
2022-11-26T03:16:46.548Z,14.73
2022-11-26T03:19:17.653Z,15.52
2022-11-26T03:21:51.115Z,17.02
2022-11-26T03:24:21.533Z,16.63
2022-11-26T03:26:52.393Z,15.75
2022-11-26T03:29:23.226Z,16.98
2022-11-26T03:31:54.255Z,17.73
2022-11-26T03:34:25.188Z,15.90
2022-11-26T03:36:56.132Z,17.20
2022-11-26T03:39:28.266Z,18.92
2022-11-26T03:41:58.912Z,17.42
2022-11-26T03:44:30.151Z,14.43
2022-11-26T03:47:02.070Z,17.05
2022-11-26T03:49:32.935Z,16.75
2022-11-26T03:52:03.573Z,19.98
2022-11-26T03:54:34.387Z,16.40
2022-11-26T03:57:06.166Z,15.35
2022-11-26T03:59:36.953Z,16.13
2022-11-26T04:02:08.135Z,16.98
2022-11-26T04:04:39.245Z,14.98
2022-11-26T04:07:10.039Z,13.55
2022-11-26T04:09:41.031Z,14.00
2022-11-26T04:12:11.792Z,12.75
2022-11-26T04:14:42.892Z,16.17
2022-11-26T04:17:13.839Z,17.42
2022-11-26T04:19:44.462Z,16.77
2022-11-26T04:22:15.399Z,14.30
2022-11-26T04:24:46.524Z,16.17
2022-11-26T04:27:17.344Z,13.90
2022-11-26T04:29:48.020Z,16.98
2022-11-26T04:32:18.712Z,16.48
2022-11-26T04:34:50.892Z,15.02
2022-11-26T04:37:21.734Z,16.73
2022-11-26T04:40:13.456Z,15.38
2022-11-26T04:42:45.493Z,14.07
2022-11-26T04:45:16.303Z,18.30
2022-11-26T04:47:48.844Z,14.07
2022-11-26T04:50:19.890Z,13.25
2022-11-26T04:52:52.370Z,14.23
2022-11-26T04:55:42.940Z,17.27
2022-11-26T04:58:15.051Z,15.63
2022-11-26T05:00:50.256Z,14.35
2022-11-26T05:03:25.900Z,14.95
2022-11-26T05:05:58.292Z,13.38
2022-11-26T05:08:32.586Z,13.00
2022-11-26T05:11:04.378Z,12.93
2022-11-26T05:13:35.191Z,14.40
2022-11-26T05:16:07.181Z,14.80
2022-11-26T05:18:40.663Z,13.70
2022-11-26T05:23:58.799Z,17.50
2022-11-26T05:26:29.917Z,13.65
2022-11-26T05:29:00.948Z,13.55
2022-11-26T05:31:32.625Z,13.27
2022-11-26T05:34:03.392Z,14.75
2022-11-26T05:36:34.321Z,16.20
2022-11-26T05:39:05.953Z,14.57
2022-11-26T05:41:36.873Z,15.27
2022-11-26T05:44:10.104Z,13.75
2022-11-26T05:46:45.144Z,13.13
2022-11-26T05:49:15.851Z,16.45
2022-11-26T05:51:46.529Z,13.60
2022-11-26T05:54:18.109Z,13.73
2022-11-26T05:56:55.578Z,13.60
2022-11-26T05:59:31.197Z,13.45
2022-11-26T06:02:04.444Z,13.88
2022-11-26T06:04:35.133Z,13.90
2022-11-26T06:07:05.796Z,13.10
2022-11-26T06:09:36.793Z,13.18
2022-11-26T06:12:09.459Z,14.20
2022-11-26T06:15:02.668Z,15.68
2022-11-26T06:17:33.430Z,13.40
2022-11-26T06:20:04.207Z,12.80
2022-11-26T06:22:39.800Z,13.68
2022-11-26T06:25:14.177Z,11.93
2022-11-26T06:27:50.136Z,13.65
2022-11-26T06:30:23.280Z,16.42
2022-11-26T06:32:53.834Z,14.07
2022-11-26T06:35:24.979Z,14.20
2022-11-26T06:37:56.573Z,14.90
2022-11-26T06:40:27.465Z,14.10
2022-11-26T06:42:58.033Z,12.48
2022-11-26T06:45:28.512Z,14.82
2022-11-26T06:47:59.544Z,12.80
2022-11-26T06:50:30.586Z,13.65
2022-11-26T06:53:02.430Z,14.73
2022-11-26T06:55:33.507Z,15.95
2022-11-26T06:58:04.503Z,13.52
2022-11-26T07:00:35.583Z,15.85
2022-11-26T07:03:06.440Z,14.18
2022-11-26T07:06:10.134Z,15.95
2022-11-26T07:08:40.822Z,15.65
2022-11-26T07:11:12.844Z,13.05
2022-11-26T07:13:43.866Z,12.68
2022-11-26T07:16:16.338Z,14.77
2022-11-26T07:19:02.365Z,15.18
2022-11-26T07:21:33.691Z,12.88
2022-11-26T07:26:52.253Z,14.02
2022-11-26T07:29:22.929Z,14.95
2022-11-26T07:31:53.700Z,11.70
2022-11-26T07:34:24.349Z,13.20
2022-11-26T07:36:58.059Z,12.55
2022-11-26T07:39:29.118Z,12.02
2022-11-26T07:41:59.891Z,15.20
2022-11-26T07:44:30.515Z,13.63
2022-11-26T07:47:02.868Z,12.07
2022-11-26T07:49:34.002Z,13.02
2022-11-26T07:52:05.044Z,12.18
2022-11-26T07:54:37.289Z,12.60
2022-11-26T07:57:10.446Z,16.23
2022-11-26T07:59:41.329Z,13.25
2022-11-26T08:02:19.705Z,10.82
2022-11-26T08:04:54.886Z,11.48
2022-11-26T08:07:45.745Z,11.30
2022-11-26T08:10:16.818Z,16.33
2022-11-26T08:12:51.798Z,14.07
2022-11-26T08:15:23.109Z,12.30
2022-11-26T08:18:00.321Z,14.52
2022-11-26T08:20:31.087Z,13.80
2022-11-26T08:23:01.882Z,14.68
2022-11-26T08:25:34.513Z,12.43
2022-11-26T08:28:05.657Z,12.15
2022-11-26T08:30:40.244Z,12.90
2022-11-26T08:33:10.833Z,13.93
2022-11-26T08:36:05.667Z,12.73
2022-11-26T08:38:33.262Z,11.25
2022-11-26T08:41:06.327Z,12.43
2022-11-26T08:46:29.555Z,11.40
2022-11-26T08:49:03.222Z,11.02
2022-11-26T08:51:34.825Z,12.10
2022-11-26T08:54:06.199Z,13.07
2022-11-26T08:56:37.209Z,13.50
2022-11-26T09:01:53.188Z,15.02
2022-11-26T09:04:24.912Z,17.77
2022-11-26T09:06:56.604Z,23.05
2022-11-26T09:09:28.367Z,18.73
2022-11-26T09:12:00.975Z,17.63
2022-11-26T09:14:37.816Z,21.52
2022-11-26T09:17:11.258Z,17.80
2022-11-26T09:19:44.884Z,18.45
2022-11-26T09:22:15.775Z,18.55
2022-11-26T09:25:06.814Z,17.70
2022-11-26T09:27:38.747Z,15.20
2022-11-26T09:30:11.118Z,16.17
2022-11-26T09:32:45.330Z,19.00
2022-11-26T09:35:15.994Z,17.02
2022-11-26T09:37:51.354Z,17.60
2022-11-26T09:40:36.118Z,17.17
2022-11-26T09:43:17.207Z,15.70
2022-11-26T09:45:52.642Z,17.00
2022-11-26T09:48:27.145Z,15.55
2022-11-26T09:51:10.627Z,15.85
2022-11-26T09:53:46.846Z,14.20
2022-11-26T09:56:27.206Z,16.52
2022-11-26T09:59:05.743Z,16.73
2022-11-26T10:01:36.938Z,15.20
2022-11-26T10:04:11.259Z,14.27
2022-11-26T10:06:49.029Z,14.10
2022-11-26T10:09:34.824Z,14.30
2022-11-26T10:12:29.613Z,13.10
2022-11-26T10:15:25.957Z,12.88
2022-11-26T10:18:23.880Z,14.25
2022-11-26T10:21:00.663Z,14.02
2022-11-26T10:23:59.115Z,12.90
2022-11-26T10:26:36.727Z,13.50
2022-11-26T10:29:19.897Z,14.52
2022-11-26T10:31:52.941Z,15.32
2022-11-26T10:34:47.621Z,12.87
2022-11-26T10:39:51.793Z,13.75
2022-11-26T10:42:26.014Z,12.73
2022-11-26T10:44:57.380Z,14.80
2022-11-26T10:47:41.115Z,13.38
2022-11-26T10:50:39.553Z,11.23
2022-11-26T10:53:08.034Z,17.13
2022-11-26T10:55:43.295Z,11.77
2022-11-26T10:58:27.297Z,12.65
2022-11-26T11:01:07.768Z,12.85
2022-11-26T11:04:09.339Z,12.48
2022-11-26T11:06:44.589Z,13.95
2022-11-26T11:09:45.815Z,13.52
2022-11-26T11:12:21.641Z,12.68
2022-11-26T11:14:53.485Z,13.25
2022-11-26T11:17:37.349Z,13.18
2022-11-26T11:20:23.233Z,13.85
2022-11-26T11:23:34.706Z,12.93
2022-11-26T11:26:21.121Z,11.93
2022-11-26T11:28:54.470Z,14.38
2022-11-26T11:31:28.145Z,12.45
2022-11-26T11:34:21.130Z,12.73
2022-11-26T11:37:14.914Z,14.82
2022-11-26T11:39:46.980Z,13.80
2022-11-26T11:42:30.648Z,12.50
2022-11-26T11:45:03.141Z,11.90
2022-11-26T11:47:45.100Z,13.85
2022-11-26T11:50:16.277Z,14.70
2022-11-26T11:53:05.935Z,12.05
2022-11-26T11:56:05.412Z,13.35
2022-11-26T11:58:48.943Z,12.32
2022-11-26T12:01:48.032Z,12.97
2022-11-26T12:04:33.796Z,12.68
2022-11-26T12:07:28.071Z,13.18
2022-11-26T12:12:59.319Z,11.70
2022-11-26T12:15:42.341Z,12.52
2022-11-26T12:18:14.418Z,14.30
2022-11-26T12:20:58.394Z,12.38
2022-11-26T12:23:40.238Z,13.07
2022-11-26T12:29:28.378Z,13.15
2022-11-26T12:32:08.925Z,13.45
2022-11-26T12:35:06.285Z,11.52
2022-11-26T12:37:43.289Z,11.48
2022-11-26T12:40:37.646Z,13.57
2022-11-26T12:43:49.509Z,13.90
2022-11-26T12:46:21.581Z,12.23
2022-11-26T12:49:07.229Z,11.85
2022-11-26T12:51:43.602Z,13.00
2022-11-26T12:54:41.466Z,11.25
2022-11-26T12:57:30.330Z,11.55
2022-11-26T13:00:15.054Z,10.38
2022-11-26T13:02:49.510Z,11.38
2022-11-26T13:05:22.673Z,12.70
2022-11-26T13:08:22.006Z,10.90
2022-11-26T13:11:23.750Z,10.40
2022-11-26T13:14:06.520Z,11.80
2022-11-26T13:16:41.308Z,11.40
2022-11-26T13:19:21.502Z,12.90
2022-11-26T13:22:39.641Z,10.27
2022-11-26T13:25:13.429Z,10.70
2022-11-26T13:28:28.284Z,10.90
2022-11-26T13:31:20.511Z,9.65
2022-11-26T13:34:35.934Z,12.25
2022-11-26T13:37:19.963Z,10.77
2022-11-26T13:40:27.759Z,14.60
2022-11-26T13:43:25.520Z,9.63
2022-11-26T13:46:03.293Z,10.60
2022-11-26T13:48:38.962Z,12.55
2022-11-26T13:51:20.338Z,11.27
2022-11-26T13:54:19.897Z,10.65
2022-11-26T13:56:52.891Z,10.90
2022-11-26T13:59:28.566Z,12.37
2022-11-26T14:02:00.124Z,11.88
2022-11-26T14:04:30.968Z,9.85
2022-11-26T14:07:07.664Z,11.45
2022-11-26T14:09:50.946Z,10.20
2022-11-26T14:12:24.399Z,12.65
2022-11-26T14:14:55.732Z,9.68
2022-11-26T14:17:34.930Z,13.38
2022-11-26T14:20:26.576Z,10.98
2022-11-26T14:22:59.491Z,9.98
2022-11-26T14:25:40.318Z,9.32
2022-11-26T14:28:12.814Z,10.48
2022-11-26T14:30:44.730Z,10.10
2022-11-26T14:33:20.918Z,11.27
2022-11-26T14:35:59.582Z,11.10
2022-11-26T14:38:32.947Z,10.48
2022-11-26T14:41:04.337Z,9.73
2022-11-26T14:43:35.042Z,10.23
2022-11-26T14:46:35.073Z,9.57
2022-11-26T14:49:20.731Z,10.32
2022-11-26T14:51:55.108Z,10.15
2022-11-26T14:54:35.332Z,9.15
2022-11-26T14:57:27.474Z,10.45
2022-11-26T15:00:09.141Z,11.40
2022-11-26T15:02:43.417Z,8.38
2022-11-26T15:05:22.728Z,10.00
2022-11-26T15:08:05.611Z,9.10
2022-11-26T15:11:03.762Z,12.55
2022-11-26T15:13:49.349Z,11.63
2022-11-26T15:16:48.865Z,9.93
2022-11-26T15:19:47.611Z,9.90
2022-11-26T15:22:34.205Z,8.48
2022-11-26T15:25:05.611Z,11.18
2022-11-26T15:27:53.607Z,10.13
2022-11-26T15:30:31.252Z,9.70
2022-11-26T15:33:07.408Z,9.07
2022-11-26T15:35:41.324Z,10.60
2022-11-26T15:40:52.602Z,9.95
2022-11-26T15:43:48.931Z,9.95
2022-11-26T15:46:26.984Z,9.02
2022-11-26T15:49:00.332Z,8.82
2022-11-26T15:51:45.294Z,9.90
2022-11-26T15:55:04.528Z,8.82
2022-11-26T15:57:36.974Z,8.18
2022-11-26T16:00:25.759Z,8.82
2022-11-26T16:02:57.145Z,8.65
2022-11-26T16:05:33.863Z,10.80
2022-11-26T16:08:28.104Z,9.07
2022-11-26T16:11:05.972Z,8.25
2022-11-26T16:13:39.708Z,8.43
2022-11-26T16:16:20.130Z,8.63
2022-11-26T16:18:57.312Z,9.25
2022-11-26T16:21:36.188Z,9.13
2022-11-26T16:24:21.243Z,7.70
2022-11-26T16:26:56.130Z,7.78
2022-11-26T16:29:28.243Z,10.45
2022-11-26T16:32:03.275Z,8.50
2022-11-26T16:34:34.345Z,7.75
2022-11-26T16:37:26.763Z,7.38
2022-11-26T16:40:16.667Z,8.05
2022-11-26T16:42:48.192Z,11.13
2022-11-26T16:45:20.147Z,10.13
2022-11-26T16:47:58.736Z,9.63
2022-11-26T16:50:30.676Z,10.68
2022-11-26T16:53:02.691Z,8.82
2022-11-26T16:55:33.924Z,9.00
2022-11-26T16:58:06.406Z,7.68
2022-11-26T17:00:38.934Z,8.32
2022-11-26T17:03:14.315Z,9.20
2022-11-26T17:05:45.674Z,8.80
2022-11-26T17:08:19.383Z,9.23
2022-11-26T17:10:54.907Z,7.70
2022-11-26T17:13:26.695Z,8.18
2022-11-26T17:15:59.089Z,7.13
2022-11-26T17:18:30.154Z,8.52
2022-11-26T17:21:01.440Z,7.10
2022-11-26T17:23:37.769Z,7.63
2022-11-26T17:26:28.512Z,7.40
2022-11-26T17:28:59.098Z,8.10
2022-11-26T17:31:31.389Z,8.48
2022-11-26T17:34:02.945Z,7.60
2022-11-26T17:36:37.033Z,7.13
2022-11-26T17:39:08.109Z,8.02
2022-11-26T17:41:38.990Z,8.48
2022-11-26T17:44:09.893Z,8.75
2022-11-26T17:47:08.994Z,7.32
2022-11-26T17:49:31.689Z,8.73
2022-11-26T17:52:02.257Z,6.53
2022-11-26T17:54:34.422Z,7.13
2022-11-26T17:57:05.716Z,7.95
2022-11-26T17:59:36.638Z,8.32
2022-11-26T18:02:07.431Z,8.70
2022-11-26T18:04:38.649Z,8.30
2022-11-26T18:07:19.582Z,6.32
2022-11-26T18:12:34.823Z,5.80
2022-11-26T18:15:05.647Z,7.22
2022-11-26T18:17:36.723Z,6.25
2022-11-26T18:20:08.335Z,7.25
2022-11-26T18:22:39.377Z,6.47
2022-11-26T18:25:11.479Z,6.53
2022-11-26T18:27:42.558Z,7.95
2022-11-26T18:30:13.801Z,7.45
2022-11-26T18:32:44.444Z,7.30
2022-11-26T18:35:15.539Z,8.23
2022-11-26T18:37:46.948Z,7.22
2022-11-26T18:40:37.924Z,7.63
2022-11-26T18:43:09.943Z,7.90
2022-11-26T18:45:44.812Z,7.03
2022-11-26T18:48:15.808Z,5.43
2022-11-26T18:50:46.606Z,6.32
2022-11-26T18:53:17.236Z,6.90
2022-11-26T18:55:47.975Z,6.80
2022-11-26T18:58:19.786Z,6.97
2022-11-26T19:00:52.843Z,8.25
2022-11-26T19:03:23.907Z,7.20
2022-11-26T19:05:55.537Z,6.60
2022-11-26T19:08:26.418Z,6.72
2022-11-26T19:10:57.425Z,7.78
2022-11-26T19:16:16.852Z,6.47
2022-11-26T19:18:48.627Z,6.85
2022-11-26T19:21:30.416Z,7.43
2022-11-26T19:24:04.128Z,6.40
2022-11-26T19:26:35.373Z,6.15
2022-11-26T19:29:09.031Z,6.18
2022-11-26T19:31:41.004Z,7.40
2022-11-26T19:34:16.021Z,6.43
2022-11-26T19:36:49.416Z,7.45
2022-11-26T19:39:40.308Z,6.50
2022-11-26T19:42:11.593Z,6.05
2022-11-26T19:44:42.290Z,5.85
2022-11-26T19:47:13.279Z,7.50
2022-11-26T19:49:44.023Z,6.25
2022-11-26T19:52:14.841Z,6.55
2022-11-26T19:54:45.489Z,6.05
2022-11-26T19:57:16.209Z,7.18
2022-11-26T19:59:46.967Z,5.40
2022-11-26T20:02:17.904Z,6.60
2022-11-26T20:04:48.717Z,6.88
2022-11-26T20:07:19.891Z,6.28
2022-11-26T20:09:54.440Z,5.78
2022-11-26T20:12:25.299Z,5.22
2022-11-26T20:14:56.244Z,7.00
2022-11-26T20:17:27.152Z,9.55
2022-11-26T20:19:57.878Z,4.95
2022-11-26T20:22:28.394Z,7.22
2022-11-26T20:24:59.216Z,6.53
2022-11-26T20:27:30.006Z,6.90
2022-11-26T20:30:00.919Z,6.40
2022-11-26T20:32:32.432Z,5.63
2022-11-26T20:35:03.293Z,5.40
2022-11-26T20:37:34.139Z,5.68
2022-11-26T20:40:05.209Z,6.00
2022-11-26T20:42:35.872Z,6.25
2022-11-26T20:45:07.724Z,5.55
2022-11-26T20:47:38.634Z,5.32
2022-11-26T20:50:12.332Z,6.53
2022-11-26T20:55:27.751Z,6.70
2022-11-26T20:57:58.561Z,5.47
2022-11-26T21:03:14.246Z,4.75
2022-11-26T21:05:44.849Z,5.72
2022-11-26T21:08:16.290Z,5.75
2022-11-26T21:10:47.385Z,5.45
2022-11-26T21:13:21.194Z,5.18
2022-11-26T21:18:23.460Z,6.72
2022-11-26T21:20:55.441Z,6.00
2022-11-26T21:23:26.014Z,5.93
2022-11-26T21:25:57.358Z,6.35
2022-11-26T21:28:28.297Z,5.15
2022-11-26T21:30:59.628Z,6.20
2022-11-26T21:33:30.673Z,4.40
2022-11-26T21:36:09.114Z,6.25
2022-11-26T21:38:40.442Z,5.70
2022-11-26T21:41:13.836Z,4.55
2022-11-26T21:43:46.039Z,5.53
2022-11-26T21:46:31.423Z,5.22
2022-11-26T21:49:05.874Z,6.25
2022-11-26T21:51:36.835Z,6.97
2022-11-26T21:54:12.537Z,7.30
2022-11-26T21:56:43.213Z,5.93
2022-11-26T21:59:13.755Z,6.60
2022-11-26T22:01:44.653Z,6.70
2022-11-26T22:04:18.835Z,5.13
2022-11-26T22:06:50.842Z,4.82
2022-11-26T22:09:21.671Z,6.28
2022-11-26T22:11:52.351Z,5.88
2022-11-26T22:14:23.425Z,5.70
2022-11-26T22:16:54.957Z,5.35
2022-11-26T22:19:25.416Z,5.15
2022-11-26T22:21:56.235Z,6.63
2022-11-26T22:24:27.372Z,5.70
2022-11-26T22:26:58.285Z,5.57
2022-11-26T22:29:29.084Z,5.70
2022-11-26T22:31:59.984Z,6.28
2022-11-26T22:34:30.803Z,5.38
2022-11-26T22:37:01.478Z,4.72
2022-11-26T22:39:33.298Z,5.22
2022-11-26T22:42:04.510Z,5.90
2022-11-26T22:44:35.521Z,5.85
2022-11-26T22:47:06.479Z,6.60
2022-11-26T22:49:38.746Z,5.03
2022-11-26T22:52:09.795Z,4.22
2022-11-26T22:54:40.645Z,5.07
2022-11-26T22:57:11.968Z,4.97
2022-11-26T22:59:42.717Z,6.22
2022-11-26T23:02:13.671Z,5.32
2022-11-26T23:04:44.402Z,6.15
2022-11-26T23:07:15.454Z,5.35
2022-11-26T23:09:47.075Z,5.00
2022-11-26T23:12:18.109Z,4.80
2022-11-26T23:14:48.950Z,4.70
2022-11-26T23:20:07.170Z,5.85
2022-11-26T23:22:38.861Z,4.43
2022-11-26T23:25:10.477Z,5.47
2022-11-26T23:27:41.345Z,4.88
2022-11-26T23:30:12.798Z,5.43
2022-11-26T23:32:43.777Z,5.57
2022-11-26T23:35:15.102Z,5.35
2022-11-26T23:37:45.737Z,4.63
2022-11-26T23:40:16.840Z,5.15
2022-11-26T23:42:47.779Z,5.43
2022-11-26T23:45:18.619Z,5.32
2022-11-26T23:47:49.641Z,4.50
2022-11-26T23:53:03.982Z,5.43
2022-11-26T23:55:35.377Z,5.72
2022-11-26T23:58:09.338Z,4.65
